sensor_id;sensor_type;location;lat;lon;timestamp;P1;durP1;ratioP1;P2;durP2;ratioP2
11665;SDS011;5889;51.350;6.708;2023-05-10T00:01:35;21.50;;;12.33;;
11665;SDS011;5889;51.350;6.708;2023-05-10T00:04:02;17.30;;;11.17;;
11665;SDS011;5889;51.350;6.708;2023-05-10T00:06:29;17.53;;;11.30;;
11665;SDS011;5889;51.350;6.708;2023-05-10T04:22:58;33.30;;;17.87;;
11665;SDS011;5889;51.350;6.708;2023-05-10T04:25:24;38.07;;;19.47;;
11665;SDS011;5889;51.350;6.708;2023-05-10T04:27:51;42.83;;;21.33;;
11665;SDS011;5889;51.350;6.708;2023-05-10T04:30:18;39.20;;;20.47;;
11665;SDS011;5889;51.350;6.708;2023-05-10T04:32:45;41.13;;;21.23;;
11665;SDS011;5889;51.350;6.708;2023-05-10T04:35:11;41.43;;;20.77;;
11665;SDS011;5889;51.350;6.708;2023-05-10T04:37:41;42.40;;;21.97;;
11665;SDS011;5889;51.350;6.708;2023-05-10T04:40:08;45.60;;;22.60;;
11665;SDS011;5889;51.350;6.708;2023-05-10T04:42:35;47.10;;;23.80;;
11665;SDS011;5889;51.350;6.708;2023-05-10T04:45:02;47.73;;;22.93;;
11665;SDS011;5889;51.350;6.708;2023-05-10T04:47:30;47.10;;;24.60;;
11665;SDS011;5889;51.350;6.708;2023-05-10T05:40:50;50.57;;;25.50;;
11665;SDS011;5889;51.350;6.708;2023-05-10T05:43:17;48.37;;;26.23;;
11665;SDS011;5889;51.350;6.708;2023-05-10T05:45:43;49.37;;;25.40;;
11665;SDS011;5889;51.350;6.708;2023-05-10T05:48:10;48.50;;;24.90;;
11665;SDS011;5889;51.350;6.708;2023-05-10T06:21:17;57.13;;;27.03;;
11665;SDS011;5889;51.350;6.708;2023-05-10T06:23:44;57.70;;;26.00;;
11665;SDS011;5889;51.350;6.708;2023-05-10T06:26:11;58.83;;;27.47;;
11665;SDS011;5889;51.350;6.708;2023-05-10T06:28:38;60.67;;;27.07;;
11665;SDS011;5889;51.350;6.708;2023-05-10T06:31:05;62.50;;;28.50;;
11665;SDS011;5889;51.350;6.708;2023-05-10T06:33:33;60.27;;;25.90;;
11665;SDS011;5889;51.350;6.708;2023-05-10T06:36:00;60.33;;;26.70;;
11665;SDS011;5889;51.350;6.708;2023-05-10T06:38:28;61.57;;;26.00;;
11665;SDS011;5889;51.350;6.708;2023-05-10T06:40:55;59.70;;;25.70;;
11665;SDS011;5889;51.350;6.708;2023-05-10T06:43:22;53.90;;;26.37;;
11665;SDS011;5889;51.350;6.708;2023-05-10T06:45:50;63.73;;;27.83;;
11665;SDS011;5889;51.350;6.708;2023-05-10T06:48:16;62.50;;;27.00;;
11665;SDS011;5889;51.350;6.708;2023-05-10T06:50:43;61.23;;;27.27;;
11665;SDS011;5889;51.350;6.708;2023-05-10T06:53:10;59.17;;;26.83;;
11665;SDS011;5889;51.350;6.708;2023-05-10T06:55:39;62.13;;;27.93;;
11665;SDS011;5889;51.350;6.708;2023-05-10T06:58:06;61.60;;;27.27;;
11665;SDS011;5889;51.350;6.708;2023-05-10T07:00:33;59.30;;;26.63;;
11665;SDS011;5889;51.350;6.708;2023-05-10T07:03:04;59.57;;;28.17;;
11665;SDS011;5889;51.350;6.708;2023-05-10T07:05:31;67.50;;;26.73;;
11665;SDS011;5889;51.350;6.708;2023-05-10T07:07:58;56.93;;;26.73;;
11665;SDS011;5889;51.350;6.708;2023-05-10T07:10:25;59.70;;;25.63;;
11665;SDS011;5889;51.350;6.708;2023-05-10T07:12:53;57.77;;;25.83;;
11665;SDS011;5889;51.350;6.708;2023-05-10T07:15:20;61.23;;;27.70;;
11665;SDS011;5889;51.350;6.708;2023-05-10T07:17:49;58.03;;;26.13;;
11665;SDS011;5889;51.350;6.708;2023-05-10T07:20:17;51.70;;;24.63;;
11665;SDS011;5889;51.350;6.708;2023-05-10T07:22:44;62.17;;;26.80;;
11665;SDS011;5889;51.350;6.708;2023-05-10T07:25:13;54.07;;;25.17;;
11665;SDS011;5889;51.350;6.708;2023-05-10T07:27:42;47.90;;;24.53;;
11665;SDS011;5889;51.350;6.708;2023-05-10T07:30:12;53.73;;;24.97;;
11665;SDS011;5889;51.350;6.708;2023-05-10T07:32:40;46.27;;;23.90;;
11665;SDS011;5889;51.350;6.708;2023-05-10T07:35:08;52.23;;;24.90;;
11665;SDS011;5889;51.350;6.708;2023-05-10T07:37:35;51.33;;;24.90;;
11665;SDS011;5889;51.350;6.708;2023-05-10T07:40:02;44.10;;;24.33;;
11665;SDS011;5889;51.350;6.708;2023-05-10T07:42:29;48.53;;;24.57;;
11665;SDS011;5889;51.350;6.708;2023-05-10T07:44:56;52.00;;;25.23;;
11665;SDS011;5889;51.350;6.708;2023-05-10T07:47:24;49.43;;;23.57;;
11665;SDS011;5889;51.350;6.708;2023-05-10T07:49:51;49.87;;;23.90;;
11665;SDS011;5889;51.350;6.708;2023-05-10T08:03:08;59.17;;;26.03;;
11665;SDS011;5889;51.350;6.708;2023-05-10T08:05:35;55.60;;;28.00;;
11665;SDS011;5889;51.350;6.708;2023-05-10T08:08:02;52.23;;;25.40;;
11665;SDS011;5889;51.350;6.708;2023-05-10T08:10:29;54.43;;;25.90;;
11665;SDS011;5889;51.350;6.708;2023-05-10T08:12:56;55.37;;;26.87;;
11665;SDS011;5889;51.350;6.708;2023-05-10T08:15:23;55.03;;;24.97;;
11665;SDS011;5889;51.350;6.708;2023-05-10T08:17:53;53.60;;;25.40;;
11665;SDS011;5889;51.350;6.708;2023-05-10T08:20:30;52.87;;;26.70;;
11665;SDS011;5889;51.350;6.708;2023-05-10T08:22:57;52.73;;;24.73;;
11665;SDS011;5889;51.350;6.708;2023-05-10T08:25:28;56.40;;;26.97;;
11665;SDS011;5889;51.350;6.708;2023-05-10T08:27:55;49.27;;;25.27;;
11665;SDS011;5889;51.350;6.708;2023-05-10T08:30:22;45.97;;;24.77;;
11665;SDS011;5889;51.350;6.708;2023-05-10T08:32:49;47.40;;;26.30;;
11665;SDS011;5889;51.350;6.708;2023-05-10T08:35:15;46.20;;;23.67;;
11665;SDS011;5889;51.350;6.708;2023-05-10T08:37:44;42.43;;;24.13;;
11665;SDS011;5889;51.350;6.708;2023-05-10T08:40:11;49.07;;;23.40;;
11665;SDS011;5889;51.350;6.708;2023-05-10T08:42:39;39.60;;;23.57;;
11665;SDS011;5889;51.350;6.708;2023-05-10T08:45:09;41.40;;;23.37;;
11665;SDS011;5889;51.350;6.708;2023-05-10T08:47:37;41.70;;;22.93;;
11665;SDS011;5889;51.350;6.708;2023-05-10T08:50:05;44.80;;;24.00;;
11665;SDS011;5889;51.350;6.708;2023-05-10T08:52:33;46.03;;;23.10;;
11665;SDS011;5889;51.350;6.708;2023-05-10T08:55:06;40.93;;;21.87;;
11665;SDS011;5889;51.350;6.708;2023-05-10T08:57:34;38.47;;;22.17;;
11665;SDS011;5889;51.350;6.708;2023-05-10T09:00:02;40.33;;;23.53;;
11665;SDS011;5889;51.350;6.708;2023-05-10T09:02:30;42.93;;;22.93;;
11665;SDS011;5889;51.350;6.708;2023-05-10T09:04:57;41.90;;;22.33;;
11665;SDS011;5889;51.350;6.708;2023-05-10T09:07:24;36.27;;;21.07;;
11665;SDS011;5889;51.350;6.708;2023-05-10T09:09:51;33.87;;;19.30;;
11665;SDS011;5889;51.350;6.708;2023-05-10T09:12:20;33.63;;;19.63;;
11665;SDS011;5889;51.350;6.708;2023-05-10T09:14:47;32.60;;;19.13;;
11665;SDS011;5889;51.350;6.708;2023-05-10T09:17:14;31.97;;;19.27;;
11665;SDS011;5889;51.350;6.708;2023-05-10T09:19:41;30.47;;;18.33;;
11665;SDS011;5889;51.350;6.708;2023-05-10T09:22:07;31.73;;;18.67;;
11665;SDS011;5889;51.350;6.708;2023-05-10T09:24:35;30.77;;;17.23;;
11665;SDS011;5889;51.350;6.708;2023-05-10T09:27:07;25.73;;;15.90;;
11665;SDS011;5889;51.350;6.708;2023-05-10T09:29:42;26.10;;;16.97;;
11665;SDS011;5889;51.350;6.708;2023-05-10T09:32:10;28.53;;;15.70;;
11665;SDS011;5889;51.350;6.708;2023-05-10T09:34:36;24.93;;;16.03;;
11665;SDS011;5889;51.350;6.708;2023-05-10T09:37:05;25.97;;;16.00;;
11665;SDS011;5889;51.350;6.708;2023-05-10T09:39:33;24.33;;;15.57;;
11665;SDS011;5889;51.350;6.708;2023-05-10T09:42:01;25.80;;;14.97;;
11665;SDS011;5889;51.350;6.708;2023-05-10T09:44:30;25.77;;;14.67;;
11665;SDS011;5889;51.350;6.708;2023-05-10T09:46:58;23.10;;;15.07;;
11665;SDS011;5889;51.350;6.708;2023-05-10T09:49:26;28.37;;;15.73;;
11665;SDS011;5889;51.350;6.708;2023-05-10T09:52:02;29.27;;;15.90;;
11665;SDS011;5889;51.350;6.708;2023-05-10T09:54:29;25.33;;;15.53;;
11665;SDS011;5889;51.350;6.708;2023-05-10T09:56:56;29.87;;;16.70;;
11665;SDS011;5889;51.350;6.708;2023-05-10T09:59:24;27.70;;;16.50;;
11665;SDS011;5889;51.350;6.708;2023-05-10T10:01:52;28.47;;;16.77;;
11665;SDS011;5889;51.350;6.708;2023-05-10T10:43:23;25.63;;;15.70;;
11665;SDS011;5889;51.350;6.708;2023-05-10T10:48:40;21.50;;;13.73;;
11665;SDS011;5889;51.350;6.708;2023-05-10T10:51:13;20.23;;;13.63;;
11665;SDS011;5889;51.350;6.708;2023-05-10T10:53:40;19.50;;;12.60;;
11665;SDS011;5889;51.350;6.708;2023-05-10T10:56:08;19.60;;;12.90;;
11665;SDS011;5889;51.350;6.708;2023-05-10T11:34:34;17.47;;;11.80;;
11665;SDS011;5889;51.350;6.708;2023-05-10T11:37:02;19.00;;;12.17;;
11665;SDS011;5889;51.350;6.708;2023-05-10T11:39:30;18.53;;;13.00;;
11665;SDS011;5889;51.350;6.708;2023-05-10T11:41:58;19.57;;;14.43;;
11665;SDS011;5889;51.350;6.708;2023-05-10T12:13:23;17.03;;;12.43;;
11665;SDS011;5889;51.350;6.708;2023-05-10T12:15:50;18.90;;;13.73;;
11665;SDS011;5889;51.350;6.708;2023-05-10T12:18:22;18.83;;;12.93;;
11665;SDS011;5889;51.350;6.708;2023-05-10T12:33:48;19.87;;;12.37;;
11665;SDS011;5889;51.350;6.708;2023-05-10T12:36:15;16.73;;;12.20;;
11665;SDS011;5889;51.350;6.708;2023-05-10T12:38:43;15.87;;;11.67;;
11665;SDS011;5889;51.350;6.708;2023-05-10T12:41:13;18.10;;;12.13;;
11665;SDS011;5889;51.350;6.708;2023-05-10T12:43:40;16.73;;;12.87;;
11665;SDS011;5889;51.350;6.708;2023-05-10T12:46:07;17.30;;;12.03;;
11665;SDS011;5889;51.350;6.708;2023-05-10T12:48:35;16.27;;;13.03;;
11665;SDS011;5889;51.350;6.708;2023-05-10T12:51:04;14.30;;;11.53;;
11665;SDS011;5889;51.350;6.708;2023-05-10T12:53:34;15.33;;;10.97;;
11665;SDS011;5889;51.350;6.708;2023-05-10T12:56:01;18.38;;;12.93;;
11665;SDS011;5889;51.350;6.708;2023-05-10T12:58:28;15.93;;;11.77;;
11665;SDS011;5889;51.350;6.708;2023-05-10T13:00:55;16.57;;;12.27;;
11665;SDS011;5889;51.350;6.708;2023-05-10T13:03:22;17.55;;;12.63;;
11665;SDS011;5889;51.350;6.708;2023-05-10T13:05:48;17.77;;;13.05;;
11665;SDS011;5889;51.350;6.708;2023-05-10T13:08:16;18.30;;;12.98;;
11665;SDS011;5889;51.350;6.708;2023-05-10T13:10:43;19.20;;;13.52;;
11665;SDS011;5889;51.350;6.708;2023-05-10T13:13:10;16.30;;;12.40;;
11665;SDS011;5889;51.350;6.708;2023-05-10T13:15:37;17.42;;;12.63;;
11665;SDS011;5889;51.350;6.708;2023-05-10T13:18:03;19.13;;;12.95;;
11665;SDS011;5889;51.350;6.708;2023-05-10T13:20:30;18.98;;;13.77;;
11665;SDS011;5889;51.350;6.708;2023-05-10T13:22:57;16.48;;;11.82;;
11665;SDS011;5889;51.350;6.708;2023-05-10T13:25:25;21.63;;;14.43;;
11665;SDS011;5889;51.350;6.708;2023-05-10T13:27:52;21.23;;;16.00;;
11665;SDS011;5889;51.350;6.708;2023-05-10T13:30:19;19.58;;;14.70;;
11665;SDS011;5889;51.350;6.708;2023-05-10T13:32:45;20.60;;;15.02;;
11665;SDS011;5889;51.350;6.708;2023-05-10T13:35:12;24.02;;;15.48;;
11665;SDS011;5889;51.350;6.708;2023-05-10T13:37:39;18.35;;;14.15;;
11665;SDS011;5889;51.350;6.708;2023-05-10T13:40:06;16.60;;;12.90;;
11665;SDS011;5889;51.350;6.708;2023-05-10T13:42:35;19.08;;;14.57;;
11665;SDS011;5889;51.350;6.708;2023-05-10T13:45:02;18.40;;;14.25;;
11665;SDS011;5889;51.350;6.708;2023-05-10T13:47:30;19.40;;;15.20;;
11665;SDS011;5889;51.350;6.708;2023-05-10T13:49:57;18.38;;;14.55;;
11665;SDS011;5889;51.350;6.708;2023-05-10T13:52:23;19.10;;;14.98;;
11665;SDS011;5889;51.350;6.708;2023-05-10T13:54:50;20.35;;;14.63;;
11665;SDS011;5889;51.350;6.708;2023-05-10T13:57:19;22.85;;;16.88;;
11665;SDS011;5889;51.350;6.708;2023-05-10T13:59:47;21.95;;;15.68;;
11665;SDS011;5889;51.350;6.708;2023-05-10T14:02:14;23.83;;;17.60;;
11665;SDS011;5889;51.350;6.708;2023-05-10T14:04:41;25.35;;;17.60;;
11665;SDS011;5889;51.350;6.708;2023-05-10T14:07:08;26.05;;;17.00;;
11665;SDS011;5889;51.350;6.708;2023-05-10T14:09:34;24.42;;;16.52;;
11665;SDS011;5889;51.350;6.708;2023-05-10T14:12:01;25.40;;;16.98;;
11665;SDS011;5889;51.350;6.708;2023-05-10T14:14:28;21.45;;;17.05;;
11665;SDS011;5889;51.350;6.708;2023-05-10T14:16:56;22.50;;;16.52;;
11665;SDS011;5889;51.350;6.708;2023-05-10T14:19:24;24.73;;;17.95;;
11665;SDS011;5889;51.350;6.708;2023-05-10T14:21:51;21.27;;;15.98;;
11665;SDS011;5889;51.350;6.708;2023-05-10T14:24:18;24.10;;;16.83;;
11665;SDS011;5889;51.350;6.708;2023-05-10T14:26:45;22.90;;;16.95;;
11665;SDS011;5889;51.350;6.708;2023-05-10T14:29:11;24.83;;;17.98;;
11665;SDS011;5889;51.350;6.708;2023-05-10T14:31:38;23.95;;;17.75;;
11665;SDS011;5889;51.350;6.708;2023-05-10T14:34:07;26.90;;;18.17;;
11665;SDS011;5889;51.350;6.708;2023-05-10T14:36:33;21.92;;;15.48;;
11665;SDS011;5889;51.350;6.708;2023-05-10T14:39:00;22.70;;;17.20;;
11665;SDS011;5889;51.350;6.708;2023-05-10T14:41:27;20.10;;;14.82;;
11665;SDS011;5889;51.350;6.708;2023-05-10T14:43:55;18.45;;;13.88;;
11665;SDS011;5889;51.350;6.708;2023-05-10T14:46:22;17.48;;;14.10;;
11665;SDS011;5889;51.350;6.708;2023-05-10T14:48:48;18.58;;;13.77;;
11665;SDS011;5889;51.350;6.708;2023-05-10T14:51:16;18.38;;;13.30;;
11665;SDS011;5889;51.350;6.708;2023-05-10T14:53:46;15.70;;;12.25;;
11665;SDS011;5889;51.350;6.708;2023-05-10T14:56:13;17.98;;;12.18;;
11665;SDS011;5889;51.350;6.708;2023-05-10T14:58:40;18.25;;;12.35;;
11665;SDS011;5889;51.350;6.708;2023-05-10T15:01:06;16.92;;;12.10;;
11665;SDS011;5889;51.350;6.708;2023-05-10T15:03:33;16.40;;;12.10;;
11665;SDS011;5889;51.350;6.708;2023-05-10T15:06:00;15.00;;;11.32;;
11665;SDS011;5889;51.350;6.708;2023-05-10T15:08:28;14.60;;;11.48;;
11665;SDS011;5889;51.350;6.708;2023-05-10T15:10:55;15.35;;;11.13;;
11665;SDS011;5889;51.350;6.708;2023-05-10T15:13:21;14.30;;;10.60;;
11665;SDS011;5889;51.350;6.708;2023-05-10T15:15:48;16.80;;;11.32;;
11665;SDS011;5889;51.350;6.708;2023-05-10T15:18:15;14.80;;;11.98;;
11665;SDS011;5889;51.350;6.708;2023-05-10T15:20:42;14.20;;;12.25;;
11665;SDS011;5889;51.350;6.708;2023-05-10T15:23:08;16.42;;;11.82;;
11665;SDS011;5889;51.350;6.708;2023-05-10T15:25:36;19.42;;;13.82;;
11665;SDS011;5889;51.350;6.708;2023-05-10T15:28:03;17.45;;;13.70;;
11665;SDS011;5889;51.350;6.708;2023-05-10T16:30:12;10.37;;;6.30;;
11665;SDS011;5889;51.350;6.708;2023-05-10T16:32:39;8.80;;;6.80;;
11665;SDS011;5889;51.350;6.708;2023-05-10T16:35:06;8.47;;;6.60;;
11665;SDS011;5889;51.350;6.708;2023-05-10T16:43:07;11.57;;;7.50;;
11665;SDS011;5889;51.350;6.708;2023-05-10T16:45:35;9.50;;;7.37;;
11665;SDS011;5889;51.350;6.708;2023-05-10T16:48:02;10.47;;;7.57;;
11665;SDS011;5889;51.350;6.708;2023-05-10T16:50:30;10.57;;;7.23;;
11665;SDS011;5889;51.350;6.708;2023-05-10T16:52:57;11.87;;;7.33;;
11665;SDS011;5889;51.350;6.708;2023-05-10T16:55:24;9.83;;;5.43;;
11665;SDS011;5889;51.350;6.708;2023-05-10T16:57:51;6.13;;;5.00;;
11665;SDS011;5889;51.350;6.708;2023-05-10T17:00:23;5.77;;;3.93;;
11665;SDS011;5889;51.350;6.708;2023-05-10T17:02:51;5.30;;;4.03;;
11665;SDS011;5889;51.350;6.708;2023-05-10T17:05:18;6.37;;;3.63;;
11665;SDS011;5889;51.350;6.708;2023-05-10T17:07:45;4.77;;;3.70;;
11665;SDS011;5889;51.350;6.708;2023-05-10T17:10:11;6.73;;;4.00;;
11665;SDS011;5889;51.350;6.708;2023-05-10T17:12:38;3.60;;;3.20;;
11665;SDS011;5889;51.350;6.708;2023-05-10T17:15:06;3.60;;;3.30;;
11665;SDS011;5889;51.350;6.708;2023-05-10T17:17:33;4.40;;;3.40;;
11665;SDS011;5889;51.350;6.708;2023-05-10T17:20:01;4.83;;;3.40;;
11665;SDS011;5889;51.350;6.708;2023-05-10T17:22:29;4.93;;;3.80;;
11665;SDS011;5889;51.350;6.708;2023-05-10T17:24:55;5.40;;;4.20;;
11665;SDS011;5889;51.350;6.708;2023-05-10T17:27:22;5.07;;;4.20;;
11665;SDS011;5889;51.350;6.708;2023-05-10T17:29:49;7.20;;;4.50;;
11665;SDS011;5889;51.350;6.708;2023-05-10T17:32:20;8.20;;;4.90;;
11665;SDS011;5889;51.350;6.708;2023-05-10T17:34:47;6.73;;;5.23;;
11665;SDS011;5889;51.350;6.708;2023-05-10T17:37:15;7.67;;;5.60;;
11665;SDS011;5889;51.350;6.708;2023-05-10T17:39:43;6.97;;;5.20;;
11665;SDS011;5889;51.350;6.708;2023-05-10T17:42:09;7.17;;;5.23;;
11665;SDS011;5889;51.350;6.708;2023-05-10T17:44:39;8.77;;;5.47;;
11665;SDS011;5889;51.350;6.708;2023-05-10T17:47:06;8.37;;;5.47;;
11665;SDS011;5889;51.350;6.708;2023-05-10T17:49:32;7.07;;;5.90;;
11665;SDS011;5889;51.350;6.708;2023-05-10T17:51:59;7.73;;;5.90;;
11665;SDS011;5889;51.350;6.708;2023-05-10T17:54:27;7.63;;;6.17;;
11665;SDS011;5889;51.350;6.708;2023-05-10T17:56:54;8.83;;;7.03;;
11665;SDS011;5889;51.350;6.708;2023-05-10T17:59:22;8.57;;;6.60;;
11665;SDS011;5889;51.350;6.708;2023-05-10T18:01:48;8.90;;;7.17;;
11665;SDS011;5889;51.350;6.708;2023-05-10T18:04:15;12.63;;;7.87;;
11665;SDS011;5889;51.350;6.708;2023-05-10T18:06:42;12.57;;;8.43;;
11665;SDS011;5889;51.350;6.708;2023-05-10T18:09:08;10.37;;;7.67;;
11665;SDS011;5889;51.350;6.708;2023-05-10T18:11:36;10.37;;;8.30;;
11665;SDS011;5889;51.350;6.708;2023-05-10T18:14:03;15.97;;;9.70;;
11665;SDS011;5889;51.350;6.708;2023-05-10T18:16:30;13.27;;;10.37;;
11665;SDS011;5889;51.350;6.708;2023-05-10T18:18:58;12.50;;;10.00;;
11665;SDS011;5889;51.350;6.708;2023-05-10T18:21:25;10.30;;;7.33;;
11665;SDS011;5889;51.350;6.708;2023-05-10T18:23:52;7.77;;;6.53;;
11665;SDS011;5889;51.350;6.708;2023-05-10T18:26:18;7.70;;;6.47;;
11665;SDS011;5889;51.350;6.708;2023-05-10T18:29:09;9.40;;;6.70;;
11665;SDS011;5889;51.350;6.708;2023-05-10T18:31:43;12.17;;;8.97;;
11665;SDS011;5889;51.350;6.708;2023-05-10T18:34:15;12.63;;;9.80;;
11665;SDS011;5889;51.350;6.708;2023-05-10T18:39:26;13.63;;;10.17;;
11665;SDS011;5889;51.350;6.708;2023-05-10T18:43:30;12.53;;;10.00;;
11665;SDS011;5889;51.350;6.708;2023-05-10T18:50:03;11.17;;;9.60;;
11665;SDS011;5889;51.350;6.708;2023-05-10T18:52:44;11.23;;;9.73;;
11665;SDS011;5889;51.350;6.708;2023-05-10T18:55:54;12.27;;;9.27;;
11665;SDS011;5889;51.350;6.708;2023-05-10T18:59:05;12.83;;;9.80;;
11665;SDS011;5889;51.350;6.708;2023-05-10T19:04:46;12.20;;;10.20;;
11665;SDS011;5889;51.350;6.708;2023-05-10T19:08:09;10.33;;;8.93;;
11665;SDS011;5889;51.350;6.708;2023-05-10T19:11:10;9.90;;;8.57;;
11665;SDS011;5889;51.350;6.708;2023-05-10T19:14:03;8.87;;;7.50;;
11665;SDS011;5889;51.350;6.708;2023-05-10T19:16:30;11.03;;;7.93;;
11665;SDS011;5889;51.350;6.708;2023-05-10T19:19:00;9.17;;;7.47;;
11665;SDS011;5889;51.350;6.708;2023-05-10T19:21:27;10.17;;;7.60;;
11665;SDS011;5889;51.350;6.708;2023-05-10T19:23:57;11.87;;;8.00;;
11665;SDS011;5889;51.350;6.708;2023-05-10T19:26:25;10.30;;;8.83;;
11665;SDS011;5889;51.350;6.708;2023-05-10T19:28:52;10.63;;;8.80;;
11665;SDS011;5889;51.350;6.708;2023-05-10T19:31:21;10.77;;;8.03;;
11665;SDS011;5889;51.350;6.708;2023-05-10T19:33:48;9.03;;;7.63;;
11665;SDS011;5889;51.350;6.708;2023-05-10T19:36:15;8.23;;;7.40;;
11665;SDS011;5889;51.350;6.708;2023-05-10T19:38:45;10.60;;;8.43;;
11665;SDS011;5889;51.350;6.708;2023-05-10T19:41:14;12.10;;;8.87;;
11665;SDS011;5889;51.350;6.708;2023-05-10T19:43:41;13.97;;;8.80;;
11665;SDS011;5889;51.350;6.708;2023-05-10T19:46:07;12.47;;;9.13;;
11665;SDS011;5889;51.350;6.708;2023-05-10T19:48:34;12.77;;;9.53;;
11665;SDS011;5889;51.350;6.708;2023-05-10T19:51:04;12.07;;;9.13;;
11665;SDS011;5889;51.350;6.708;2023-05-10T19:53:32;13.87;;;9.37;;
11665;SDS011;5889;51.350;6.708;2023-05-10T19:56:02;12.57;;;9.53;;
11665;SDS011;5889;51.350;6.708;2023-05-10T19:58:31;13.07;;;9.07;;
11665;SDS011;5889;51.350;6.708;2023-05-10T20:00:58;11.60;;;9.50;;
11665;SDS011;5889;51.350;6.708;2023-05-10T20:03:25;13.23;;;10.33;;
11665;SDS011;5889;51.350;6.708;2023-05-10T20:05:52;15.97;;;11.23;;
11665;SDS011;5889;51.350;6.708;2023-05-10T20:08:19;17.10;;;12.27;;
11665;SDS011;5889;51.350;6.708;2023-05-10T20:10:46;13.60;;;10.60;;
11665;SDS011;5889;51.350;6.708;2023-05-10T20:13:13;15.13;;;10.70;;
11665;SDS011;5889;51.350;6.708;2023-05-10T20:15:41;14.20;;;10.80;;
11665;SDS011;5889;51.350;6.708;2023-05-10T20:18:10;14.87;;;11.87;;
11665;SDS011;5889;51.350;6.708;2023-05-10T20:20:37;14.10;;;11.63;;
11665;SDS011;5889;51.350;6.708;2023-05-10T20:23:04;13.87;;;10.97;;
11665;SDS011;5889;51.350;6.708;2023-05-10T20:25:31;16.97;;;11.87;;
11665;SDS011;5889;51.350;6.708;2023-05-10T20:27:58;21.73;;;12.63;;
11665;SDS011;5889;51.350;6.708;2023-05-10T20:30:25;17.70;;;12.43;;
11665;SDS011;5889;51.350;6.708;2023-05-10T20:32:53;17.97;;;12.87;;
11665;SDS011;5889;51.350;6.708;2023-05-10T20:35:20;17.63;;;12.97;;
11665;SDS011;5889;51.350;6.708;2023-05-10T20:37:46;19.87;;;12.83;;
11665;SDS011;5889;51.350;6.708;2023-05-10T20:40:13;21.10;;;13.87;;
11665;SDS011;5889;51.350;6.708;2023-05-10T20:42:40;19.77;;;14.23;;
11665;SDS011;5889;51.350;6.708;2023-05-10T20:45:07;21.90;;;14.50;;
11665;SDS011;5889;51.350;6.708;2023-05-10T20:47:35;21.77;;;14.33;;
11665;SDS011;5889;51.350;6.708;2023-05-10T20:50:03;18.80;;;13.37;;
11665;SDS011;5889;51.350;6.708;2023-05-10T20:52:31;20.03;;;13.13;;
11665;SDS011;5889;51.350;6.708;2023-05-10T20:54:57;18.57;;;12.87;;
11665;SDS011;5889;51.350;6.708;2023-05-10T20:57:24;17.93;;;13.23;;
11665;SDS011;5889;51.350;6.708;2023-05-10T20:59:51;18.90;;;12.97;;
11665;SDS011;5889;51.350;6.708;2023-05-10T21:02:18;17.87;;;12.50;;
11665;SDS011;5889;51.350;6.708;2023-05-10T21:04:45;15.83;;;12.30;;
11665;SDS011;5889;51.350;6.708;2023-05-10T21:07:15;16.33;;;11.57;;
11665;SDS011;5889;51.350;6.708;2023-05-10T21:09:42;18.73;;;12.03;;
11665;SDS011;5889;51.350;6.708;2023-05-10T21:12:09;16.13;;;11.93;;
11665;SDS011;5889;51.350;6.708;2023-05-10T21:14:35;20.93;;;13.03;;
11665;SDS011;5889;51.350;6.708;2023-05-10T21:17:02;15.03;;;11.50;;
11665;SDS011;5889;51.350;6.708;2023-05-10T21:19:29;15.10;;;11.40;;
11665;SDS011;5889;51.350;6.708;2023-05-10T21:21:56;16.77;;;12.63;;
11665;SDS011;5889;51.350;6.708;2023-05-10T21:24:25;14.80;;;10.83;;
11665;SDS011;5889;51.350;6.708;2023-05-10T21:26:51;15.03;;;11.23;;
11665;SDS011;5889;51.350;6.708;2023-05-10T21:29:18;15.07;;;10.73;;
11665;SDS011;5889;51.350;6.708;2023-05-10T21:31:45;16.20;;;10.70;;
11665;SDS011;5889;51.350;6.708;2023-05-10T21:34:11;15.20;;;11.47;;
11665;SDS011;5889;51.350;6.708;2023-05-10T21:36:38;12.70;;;10.93;;
11665;SDS011;5889;51.350;6.708;2023-05-10T21:39:05;14.50;;;11.43;;
11665;SDS011;5889;51.350;6.708;2023-05-10T21:41:33;18.13;;;11.63;;
11665;SDS011;5889;51.350;6.708;2023-05-10T21:44:00;14.77;;;10.50;;
11665;SDS011;5889;51.350;6.708;2023-05-10T21:46:27;16.50;;;10.63;;
11665;SDS011;5889;51.350;6.708;2023-05-10T21:48:53;17.27;;;12.63;;
11665;SDS011;5889;51.350;6.708;2023-05-10T21:51:21;22.20;;;14.13;;
11665;SDS011;5889;51.350;6.708;2023-05-10T21:53:48;17.97;;;13.90;;
11665;SDS011;5889;51.350;6.708;2023-05-10T21:56:14;19.53;;;13.90;;
11665;SDS011;5889;51.350;6.708;2023-05-10T21:58:43;19.90;;;14.20;;
11665;SDS011;5889;51.350;6.708;2023-05-10T22:01:09;20.07;;;14.30;;
11665;SDS011;5889;51.350;6.708;2023-05-10T22:03:38;19.53;;;14.47;;
11665;SDS011;5889;51.350;6.708;2023-05-10T22:06:05;22.27;;;14.20;;
11665;SDS011;5889;51.350;6.708;2023-05-10T22:08:32;18.03;;;14.03;;
11665;SDS011;5889;51.350;6.708;2023-05-10T22:10:59;21.23;;;15.33;;
11665;SDS011;5889;51.350;6.708;2023-05-10T22:13:26;20.30;;;15.47;;
11665;SDS011;5889;51.350;6.708;2023-05-10T22:15:54;22.80;;;16.03;;
11665;SDS011;5889;51.350;6.708;2023-05-10T22:18:21;24.37;;;16.30;;
11665;SDS011;5889;51.350;6.708;2023-05-10T22:20:47;21.53;;;15.60;;
11665;SDS011;5889;51.350;6.708;2023-05-10T22:23:14;21.40;;;15.60;;
11665;SDS011;5889;51.350;6.708;2023-05-10T22:25:41;22.93;;;15.97;;
11665;SDS011;5889;51.350;6.708;2023-05-10T22:28:08;22.90;;;15.67;;
11665;SDS011;5889;51.350;6.708;2023-05-10T22:30:35;22.27;;;16.67;;
11665;SDS011;5889;51.350;6.708;2023-05-10T22:33:04;23.50;;;16.30;;
11665;SDS011;5889;51.350;6.708;2023-05-10T22:35:31;26.30;;;17.10;;
11665;SDS011;5889;51.350;6.708;2023-05-10T22:37:57;25.07;;;17.00;;
11665;SDS011;5889;51.350;6.708;2023-05-10T22:40:24;27.57;;;17.77;;
11665;SDS011;5889;51.350;6.708;2023-05-10T22:42:51;29.20;;;19.60;;
11665;SDS011;5889;51.350;6.708;2023-05-10T22:45:18;30.73;;;19.50;;
11665;SDS011;5889;51.350;6.708;2023-05-10T22:47:45;27.17;;;18.30;;
11665;SDS011;5889;51.350;6.708;2023-05-10T22:50:13;26.03;;;18.17;;
11665;SDS011;5889;51.350;6.708;2023-05-10T22:52:41;28.40;;;19.07;;
11665;SDS011;5889;51.350;6.708;2023-05-10T22:55:08;26.53;;;18.23;;
11665;SDS011;5889;51.350;6.708;2023-05-10T22:57:35;28.20;;;18.10;;
11665;SDS011;5889;51.350;6.708;2023-05-10T23:25:56;27.50;;;19.47;;
11665;SDS011;5889;51.350;6.708;2023-05-10T23:28:23;30.13;;;20.23;;
11665;SDS011;5889;51.350;6.708;2023-05-10T23:30:52;24.77;;;18.43;;
11665;SDS011;5889;51.350;6.708;2023-05-10T23:33:20;25.00;;;18.53;;
11665;SDS011;5889;51.350;6.708;2023-05-10T23:35:47;25.63;;;18.63;;
11665;SDS011;5889;51.350;6.708;2023-05-10T23:38:14;26.80;;;18.73;;
11665;SDS011;5889;51.350;6.708;2023-05-10T23:40:40;26.03;;;19.03;;
11665;SDS011;5889;51.350;6.708;2023-05-10T23:43:08;25.37;;;17.80;;
11665;SDS011;5889;51.350;6.708;2023-05-10T23:45:35;24.53;;;17.93;;
11665;SDS011;5889;51.350;6.708;2023-05-10T23:48:02;24.63;;;18.10;;
11665;SDS011;5889;51.350;6.708;2023-05-10T23:50:29;25.40;;;18.50;;
11665;SDS011;5889;51.350;6.708;2023-05-10T23:52:56;27.07;;;18.67;;
11665;SDS011;5889;51.350;6.708;2023-05-10T23:55:22;29.53;;;19.20;;
11665;SDS011;5889;51.350;6.708;2023-05-10T23:57:49;25.63;;;18.60;;
